Latest Weather Observations for Kingscote

IDS60801

Issued at 11:01 pm CST Sunday 30 August 2015 (issued every 30 minutes, with the page automatically refreshed every 10 minutes)

About weather observations | Map of weather stations | Latest weather observations for SA | Other Formats
Station Details ID: 022841 Name: KINGSCOTE AERO Lat: -35.71 Lon: 137.52 Height: 6.23 m
Data from the previous 72 hours. | See also: Recent months at Kingscote
Date/Time
CST
Temp
°C
App
Temp
°C
Dew
Point
Rel
Hum
%
Delta-T
°C
Wind Press
QNH
hPa
Press
MSL
hPa
Rain
since 9 am
mm
Dir
 
Spd
km/h
Gust
km/h
Spd
kts
Gust
kts
30/11:00pm 3.0 0.6 2.3 95 0.3 W 4 6 2 3 1022.9 1022.9 0.0
30/10:30pm 3.7 0.9 3.0 95 0.3 WSW 7 7 4 4 1023.0 1023.0 0.0
30/10:00pm 3.7 0.8 2.8 94 0.4 SW 7 9 4 5 1023.2 1023.2 0.0
30/09:30pm 3.9 1.1 2.9 93 0.4 WSW 7 9 4 5 1023.4 1023.4 0.0
30/09:00pm 4.7 2.0 3.5 92 0.5 SW 7 9 4 5 1023.4 1023.4 0.0
30/08:30pm 6.5 5.3 4.8 89 0.7 CALM 0 0 0 0 1023.2 1023.2 0.0
30/08:00pm 7.7 5.0 5.5 86 1.0 E 9 11 5 6 1023.1 1023.1 0.0
30/07:30pm 8.0 4.5 5.6 85 1.1 ESE 13 13 7 7 1022.9 1022.9 0.0
30/07:00pm 9.0 6.0 5.9 81 1.4 ENE 11 11 6 6 1023.1 1023.1 0.0
30/06:30pm 9.6 6.9 5.8 77 1.7 E 9 9 5 5 1023.2 1023.2 0.0
30/06:00pm 10.6 8.0 6.0 73 2.1 E 9 9 5 5 1023.2 1023.2 0.0
30/05:30pm 11.7 8.8 6.6 71 2.4 ENE 11 13 6 7 1023.1 1023.1 0.0
30/05:00pm 12.0 8.7 6.3 68 2.7 E 13 17 7 9 1023.0 1023.0 0.0
30/04:30pm 12.7 8.4 5.1 60 3.5 ENE 17 20 9 11 1022.9 1022.9 0.0
30/04:00pm 12.9 8.7 5.6 61 3.4 ENE 17 24 9 13 1023.1 1023.1 0.0
30/03:30pm 13.7 9.1 6.3 61 3.5 E 20 28 11 15 1023.0 1023.0 0.0
30/03:00pm 14.1 10.2 7.2 63 3.4 NE 17 22 9 12 1023.3 1023.3 0.0
30/02:30pm 13.9 9.7 3.9 51 4.5 NNE 15 24 8 13 1023.7 1023.7 0.0
30/02:00pm 13.9 9.9 6.5 61 3.6 NE 17 24 9 13 1023.8 1023.8 0.0
30/01:30pm 14.2 10.1 6.1 58 3.9 NE 17 28 9 15 1024.0 1024.0 0.0
30/01:00pm 14.0 9.4 3.5 49 4.7 NNE 17 24 9 13 1024.4 1024.4 0.0
30/12:30pm 13.9 9.6 5.3 56 4.0 NE 17 24 9 13 1025.1 1025.1 0.0
30/12:00pm 13.7 9.5 5.8 59 3.7 NE 17 20 9 11 1025.5 1025.5 0.0
30/11:30am 13.3 9.4 7.3 67 2.9 ENE 17 20 9 11 1025.9 1025.9 0.0
30/11:00am 12.6 8.5 6.4 66 2.9 ENE 17 26 9 14 1026.0 1026.0 0.0
30/10:30am 12.5 8.6 7.0 69 2.6 NE 17 22 9 12 1026.3 1026.3 0.0
30/10:00am 12.2 8.2 6.7 69 2.6 NE 17 24 9 13 1026.5 1026.5 0.0
30/09:30am 12.3 8.3 6.8 69 2.6 NE 17 22 9 12 1026.6 1026.6 0.0
30/09:00am 10.5 9.8 6.8 78 1.7 CALM 0 0 0 0 1026.7 1026.7 0.0
30/08:30am 7.9 7.2 7.0 94 0.4 CALM 0 0 0 0 1026.7 1026.7 0.0
30/08:00am 4.8 3.6 4.4 97 0.2 CALM 0 0 0 0 1026.7 1026.7 0.0
30/07:30am 2.1 0.4 1.7 97 0.2 CALM 0 0 0 0 1026.6 1026.6 0.0
30/07:00am 0.7 -1.2 0.3 97 0.1 CALM 0 0 0 0 1026.5 1026.5 0.0
30/06:30am 1.2 -0.7 0.8 97 0.1 CALM 0 0 0 0 1026.4 1026.4 0.0
30/06:00am 0.9 -1.0 0.3 96 0.2 CALM 0 0 0 0 1026.3 1026.3 0.0
30/05:30am 1.1 -0.8 0.5 96 0.2 CALM 0 0 0 0 1026.3 1026.3 0.0
30/05:00am 1.1 -0.8 0.5 96 0.2 CALM 0 0 0 0 1026.0 1026.0 0.0
30/04:30am 1.6 -0.2 0.9 95 0.3 CALM 0 0 0 0 1025.9 1025.9 0.0
30/04:00am 1.9 0.1 1.0 94 0.3 CALM 0 0 0 0 1026.0 1026.0 0.0
30/03:30am 2.5 0.3 0.9 89 0.6 S 2 7 1 4 1026.1 1026.1 0.0
30/03:00am 6.7 3.1 5.0 89 0.7 ESE 13 15 7 8 1026.3 1026.3 0.0
30/02:30am 6.6 2.7 5.4 92 0.5 ESE 15 17 8 9 1026.6 1026.6 0.0
30/02:00am 2.6 0.9 1.7 94 0.3 CALM 0 0 0 0 1027.0 1027.0 0.0
30/01:30am 3.0 1.3 2.1 94 0.4 CALM 0 0 0 0 1027.4 1027.4 0.0
30/01:00am 2.8 1.1 1.8 93 0.4 CALM 0 0 0 0 1027.6 1027.6 0.0
30/12:30am 3.4 1.8 2.4 93 0.4 CALM 0 0 0 0 1027.7 1027.7 0.0
30/12:00am 3.7 0.8 2.8 94 0.4 SE 7 7 4 4 1027.8 1027.8 0.0
 
Date/Time
CST
Temp
°C
App
Temp
°C
Dew
Point
Rel
Hum
%
Delta-T
°C
Wind Press
QNH
hPa
Press
MSL
hPa
Rain
since 9 am
mm
Dir
 
Spd
km/h
Gust
km/h
Spd
kts
Gust
kts
29/11:30pm 3.5 1.9 2.5 93 0.4 CALM 0 0 0 0 1028.0 1028.0 0.0
29/11:00pm 3.6 2.0 2.6 93 0.4 CALM 0 0 0 0 1028.2 1028.2 0.0
29/10:30pm 3.5 1.9 2.2 91 0.5 CALM 0 0 0 0 1028.4 1028.4 0.0
29/10:00pm 4.0 2.5 2.8 92 0.5 CALM 0 0 0 0 1028.5 1028.5 0.0
29/09:30pm 4.1 2.5 2.6 90 0.6 CALM 0 0 0 0 1028.6 1028.6 0.0
29/09:00pm 3.1 1.4 1.6 90 0.6 CALM 0 0 0 0 1028.7 1028.7 0.0
29/08:30pm 2.9 1.1 1.4 90 0.6 CALM 0 0 0 0 1028.6 1028.6 0.0
29/08:00pm 3.7 2.0 1.7 87 0.8 CALM 0 0 0 0 1028.4 1028.4 0.0
29/07:30pm 4.6 2.9 1.8 82 1.1 CALM 0 0 0 0 1028.4 1028.4 0.0
29/07:00pm 5.9 4.3 2.7 80 1.3 CALM 0 6 0 3 1028.2 1028.2 0.0
29/06:30pm 6.7 3.0 2.4 74 1.8 SE 11 13 6 7 1028.1 1028.1 0.0
29/06:00pm 7.9 3.8 2.4 68 2.3 SE 13 17 7 9 1028.0 1028.0 0.0
29/05:30pm 9.2 4.3 2.3 62 2.9 SE 17 22 9 12 1027.7 1027.7 0.0
29/05:00pm 10.2 5.6 3.5 63 2.9 ESE 17 24 9 13 1027.8 1027.8 0.0
29/04:30pm 10.7 5.0 2.8 58 3.4 SE 22 32 12 17 1027.7 1027.7 0.0
29/04:00pm 11.4 5.8 3.7 59 3.4 ESE 22 32 12 17 1027.7 1027.7 0.0
29/03:30pm 11.9 5.9 3.4 56 3.7 SE 24 32 13 17 1027.6 1027.6 0.0
29/03:00pm 12.8 7.7 4.0 55 3.9 SE 20 26 11 14 1027.6 1027.6 0.0
29/02:30pm 11.8 5.9 3.8 58 3.5 ENE 24 30 13 16 1027.7 1027.7 0.0
29/02:00pm 12.7 6.7 5.4 61 3.4 ENE 26 32 14 17 1027.9 1027.9 0.0
29/01:30pm 12.9 7.2 5.1 59 3.6 ENE 24 30 13 16 1028.3 1028.3 0.0
29/01:00pm 13.1 6.8 5.8 61 3.4 ENE 28 35 15 19 1028.6 1028.6 0.0
29/12:30pm 12.6 6.7 5.8 63 3.2 ENE 26 35 14 19 1029.0 1029.0 0.0
29/12:00pm 12.4 6.2 6.0 65 3.0 ENE 28 35 15 19 1029.3 1029.3 0.0
29/11:30am 12.3 6.3 5.5 63 3.1 ENE 26 35 14 19 1029.6 1029.6 0.0
29/11:00am 12.4 6.3 6.7 68 2.7 E 28 33 15 18 1029.9 1029.9 0.0
29/10:30am 11.8 6.5 6.7 71 2.4 E 24 32 13 17 1029.9 1029.9 0.0
29/10:00am 11.4 6.2 7.1 75 2.1 E 24 30 13 16 1029.6 1029.6 0.0
29/09:30am 10.9 6.7 7.4 79 1.7 E 19 26 10 14 1029.7 1029.7 0.0
29/09:00am 10.8 7.2 8.4 85 1.2 E 17 24 9 13 1029.6 1029.6 1.6
29/08:30am 10.4 6.8 8.2 86 1.1 E 17 20 9 11 1029.3 1029.3 1.6
29/08:00am 9.5 6.5 7.8 89 0.8 ESE 13 17 7 9 1029.1 1029.1 1.6
29/07:30am 8.5 5.9 7.6 94 0.4 ESE 11 11 6 6 1028.8 1028.8 1.6
29/07:00am 8.6 6.4 7.8 95 0.4 SE 9 11 5 6 1028.4 1028.4 1.6
29/06:30am 8.7 6.5 7.9 95 0.4 SE 9 9 5 5 1028.1 1028.1 1.6
29/06:00am 8.8 7.0 8.0 95 0.4 SSE 7 9 4 5 1028.0 1028.0 1.6
29/05:30am 8.7 6.5 7.9 95 0.4 SE 9 9 5 5 1027.9 1027.9 1.6
29/05:08am 8.4 6.6 8.1 98 0.1 SE 7 17 4 9 1027.9 1027.9 1.6
29/05:00am 8.5 6.9 8.2 98 0.1 SE 6 9 3 5 1027.9 1027.9 1.6
29/04:35am 7.6 7.0 7.3 98 0.1 CALM 0 0 0 0 1027.9 1027.9 1.0
29/04:30am 7.5 6.9 7.2 98 0.1 CALM 0 0 0 0 1027.8 1027.8 0.8
29/04:09am 7.1 6.3 6.7 97 0.2 CALM 0 0 0 0 1027.6 1027.6 0.8
29/04:00am 7.4 6.7 7.1 98 0.1 CALM 0 0 0 0 1027.7 1027.7 0.8
29/03:30am 7.7 7.1 7.4 98 0.1 CALM 0 0 0 0 1027.8 1027.8 0.8
29/03:08am 7.2 6.5 6.9 98 0.1 CALM 0 0 0 0 1028.3 1028.3 0.8
29/03:00am 7.0 6.2 6.6 97 0.2 CALM 0 0 0 0 1028.3 1028.3 0.8
29/02:30am 6.8 6.0 6.4 97 0.2 CALM 0 0 0 0 1028.5 1028.5 0.8
29/02:00am 6.6 5.7 6.0 96 0.3 CALM 0 0 0 0 1028.7 1028.7 0.8
29/01:51am 7.1 6.3 6.5 96 0.3 CALM 0 0 0 0 1028.8 1028.8 0.8
29/01:30am 7.9 7.3 7.3 96 0.3 CALM 0 0 0 0 1028.9 1028.9 0.8
29/01:00am 8.7 8.3 8.3 97 0.2 CALM 0 0 0 0 1029.0 1029.0 0.6
29/12:30am 8.4 7.9 7.8 96 0.3 CALM 0 0 0 0 1029.0 1029.0 0.6
29/12:00am 8.9 8.5 8.3 96 0.3 CALM 0 0 0 0 1029.1 1029.1 0.6
 
Date/Time
CST
Temp
°C
App
Temp
°C
Dew
Point
Rel
Hum
%
Delta-T
°C
Wind Press
QNH
hPa
Press
MSL
hPa
Rain
since 9 am
mm
Dir
 
Spd
km/h
Gust
km/h
Spd
kts
Gust
kts
28/11:30pm 9.2 8.9 8.7 97 0.2 CALM 0 0 0 0 1029.1 1029.1 0.6
28/11:10pm 9.2 8.2 8.7 97 0.2 WNW 4 7 2 4 1029.1 1029.1 0.6
28/11:00pm 9.2 7.7 8.6 96 0.3 WSW 6 7 3 4 1029.1 1029.1 0.6
28/10:57pm 9.2 7.7 8.6 96 0.3 WSW 6 7 3 4 1029.2 1029.2 0.6
28/10:30pm 9.1 7.1 8.5 96 0.3 SSW 9 13 5 7 1029.3 1029.3 0.0
28/10:28pm 9.0 6.9 8.4 96 0.3 SSW 9 13 5 7 1029.3 1029.3 0.0
28/10:00pm 7.8 7.1 6.9 94 0.4 CALM 0 0 0 0 1029.4 1029.4 0.0
28/09:30pm 7.4 6.5 6.2 92 0.5 CALM 0 0 0 0 1029.4 1029.4 0.0
28/09:00pm 7.2 6.2 5.7 90 0.7 CALM 0 6 0 3 1029.2 1029.2 0.0
28/08:30pm 8.4 6.2 6.2 86 1.0 WSW 7 7 4 4 1029.1 1029.1 0.0
28/08:00pm 8.4 5.8 6.2 86 1.0 S 9 11 5 6 1029.1 1029.1 0.0
28/07:30pm 9.2 6.3 6.6 84 1.2 S 11 11 6 6 1028.9 1028.9 0.0
28/07:00pm 10.3 8.3 7.0 80 1.6 S 7 9 4 5 1028.8 1028.8 0.0
28/06:30pm 10.9 8.3 6.3 73 2.1 SSE 9 11 5 6 1028.5 1028.5 0.0
28/06:00pm 11.5 8.5 5.8 68 2.6 SSE 11 13 6 7 1028.3 1028.3 0.0
28/05:30pm 11.9 8.5 5.8 66 2.8 SSE 13 17 7 9 1028.0 1028.0 0.0
28/05:00pm 12.3 8.0 5.2 62 3.3 SSE 17 20 9 11 1028.0 1028.0 0.0
28/04:30pm 13.0 9.0 4.7 57 3.8 ESE 15 22 8 12 1028.0 1028.0 0.0
28/04:00pm 13.4 8.4 4.6 55 4.0 SE 20 26 11 14 1028.1 1028.1 0.0
28/03:30pm 12.9 8.5 4.6 57 3.8 SSE 17 20 9 11 1028.2 1028.2 0.0
28/03:00pm 13.2 10.4 5.1 58 3.7 SE 9 15 5 8 1028.3 1028.3 0.0
28/02:30pm 12.7 9.1 5.1 60 3.5 SE 13 19 7 10 1028.5 1028.5 0.0
28/02:00pm 12.8 8.5 5.2 60 3.5 SE 17 24 9 13 1028.7 1028.7 0.0
28/01:30pm 12.9 9.1 5.6 61 3.4 SSE 15 22 8 12 1028.9 1028.9 0.0
28/01:00pm 13.1 9.0 6.2 63 3.3 SE 17 20 9 11 1029.2 1029.2 0.0
28/12:30pm 13.0 8.4 5.7 61 3.4 SE 19 24 10 13 1029.6 1029.6 0.0
28/12:00pm 13.2 9.4 5.9 61 3.4 SE 15 20 8 11 1029.9 1029.9 0.0
28/11:30am 13.1 9.8 6.2 63 3.2 SSE 13 19 7 10 1030.3 1030.3 0.0
28/11:00am 13.2 8.5 5.1 58 3.8 SSE 19 26 10 14 1030.4 1030.4 0.0
28/10:30am 13.3 9.2 4.2 54 4.1 S 15 20 8 11 1030.6 1030.6 0.0
28/10:00am 13.3 9.1 5.9 61 3.5 SSE 17 24 9 13 1030.5 1030.5 0.0
28/09:30am 13.0 7.8 5.7 61 3.4 SE 22 30 12 16 1030.4 1030.4 0.0
28/09:00am 12.3 8.3 6.6 68 2.7 SSE 17 24 9 13 1030.3 1030.3 2.0
28/08:30am 10.7 8.5 7.8 82 1.4 S 9 11 5 6 1030.4 1030.4 2.0
28/08:00am 9.1 7.2 6.7 85 1.1 SSW 6 7 3 4 1030.3 1030.3 2.0
28/07:30am 8.1 5.6 6.6 90 0.7 SSW 9 11 5 6 1030.0 1030.0 2.0
28/07:00am 7.2 4.0 5.3 88 0.8 SSW 11 13 6 7 1029.8 1029.8 2.0
28/06:30am 7.8 5.2 5.9 88 0.9 SSW 9 11 5 6 1029.6 1029.6 2.0
28/06:00am 8.2 4.9 6.2 87 0.9 SSW 13 17 7 9 1029.4 1029.4 2.0
28/05:30am 8.4 5.5 6.7 89 0.8 S 11 15 6 8 1029.3 1029.3 2.0
28/05:00am 8.3 5.2 7.1 92 0.6 SSW 13 15 7 8 1029.3 1029.3 2.0
28/04:30am 7.9 5.1 6.8 93 0.5 SSW 11 13 6 7 1029.0 1029.0 2.0
28/04:00am 8.3 6.3 7.2 93 0.5 SSW 7 9 4 5 1028.9 1028.9 2.0
28/03:30am 8.2 6.2 7.0 92 0.6 SSW 7 11 4 6 1028.8 1028.8 2.0
28/03:00am 8.8 6.2 7.7 93 0.5 SSW 11 13 6 7 1028.9 1028.9 2.0
28/02:30am 9.0 6.0 7.8 92 0.6 SW 13 15 7 8 1029.1 1029.1 2.0
28/02:00am 9.3 6.0 8.2 93 0.5 SSW 15 17 8 9 1029.3 1029.3 2.0
28/01:30am 8.9 5.9 7.8 93 0.5 SSW 13 17 7 9 1029.3 1029.3 2.0
28/01:00am 8.9 6.0 8.0 94 0.4 SSW 13 15 7 8 1029.2 1029.2 2.0
28/12:30am 9.4 5.8 8.5 94 0.4 S 17 24 9 13 1029.0 1029.0 2.0
28/12:26am 9.5 5.6 8.6 94 0.4 S 19 26 10 14 1029.0 1029.0 2.0
28/12:04am 9.4 5.3 8.6 95 0.4 SSE 20 28 11 15 1029.1 1029.1 2.0
28/12:01am 9.4 5.5 8.5 94 0.4 SSE 19 28 10 15 1029.1 1029.1 1.8
28/12:00am 9.4 5.5 8.5 94 0.4 SSE 19 26 10 14 1029.1 1029.1 1.8
 
Date/Time
CST
Temp
°C
App
Temp
°C
Dew
Point
Rel
Hum
%
Delta-T
°C
Wind Press
QNH
hPa
Press
MSL
hPa
Rain
since 9 am
mm
Dir
 
Spd
km/h
Gust
km/h
Spd
kts
Gust
kts
27/11:41pm 9.6 6.2 9.0 96 0.3 SE 17 24 9 13 1029.2 1029.2 1.6
27/11:30pm 9.0 6.5 8.4 96 0.3 SE 11 15 6 8 1029.2 1029.2 1.6

Other Formats:

Comma delimited format used in spreadsheet applications
http://www.bom.gov.au/fwo/IDS60801/IDS60801.95807.axf

JavaScript Object Notation format (JSON) in row-major order
http://www.bom.gov.au/fwo/IDS60801/IDS60801.95807.json